TAM074 SKBO-MMMX
Flight info
| Callsign | TAM074 |
|---|---|
| Flight time | N/A |
| Altitude | 36000 |
| Route | TOBKI1S VASIL UL423 PULOX DCT SIGUN UM549 TBG UM419 ASOKU DCT UGATA UL655 AVALI UT169 UMAVO UT101 ENAGA ENAGA3A |
| Aircraft | B77W/H-SDE1E2E3FGHIJ2J3J4J5M1RWXY/LB1D1 |
Departure
| Time | 2026-05-07 03:17 |
|---|---|
| Airport | El Dorado International Airport (SKBO) |
Arrival
| Time | N/A |
|---|---|
| Airport | Mexico City Benito Juárez International Airport (MMMX) |
| Time | Latitude | Longitude | Altitude | Speed | Heading |
|---|---|---|---|---|---|
| 2026-05-07 02:04 | 4.69772 | -74.13828 | 8379 ft | 0 kts | 218° |
| 2026-05-07 02:47 | 4.69776 | -74.13825 | 8379 ft | 2 kts | 218° |
| 2026-05-07 02:48 | 4.69788 | -74.13816 | 8378 ft | 2 kts | 219° |
| 2026-05-07 02:48 | 4.69799 | -74.13805 | 8378 ft | 2 kts | 237° |
| 2026-05-07 02:48 | 4.69806 | -74.13792 | 8378 ft | 2 kts | 252° |
| 2026-05-07 02:48 | 4.69809 | -74.13778 | 8377 ft | 2 kts | 266° |
| 2026-05-07 02:49 | 4.69809 | -74.13763 | 8377 ft | 2 kts | 280° |
| 2026-05-07 02:49 | 4.69805 | -74.13748 | 8377 ft | 2 kts | 295° |
| 2026-05-07 02:49 | 4.69799 | -74.13738 | 8377 ft | 0 kts | 307° |
| 2026-05-07 02:49 | 4.69796 | -74.13734 | 8377 ft | 0 kts | 308° |
| 2026-05-07 02:54 | 4.69799 | -74.13738 | 8377 ft | 1 kts | 308° |
| 2026-05-07 02:54 | 4.69804 | -74.13744 | 8377 ft | 0 kts | 307° |
| 2026-05-07 02:55 | 4.69811 | -74.13753 | 8377 ft | 2 kts | 307° |
| 2026-05-07 02:55 | 4.69825 | -74.13773 | 8377 ft | 4 kts | 306° |
| 2026-05-07 02:55 | 4.69834 | -74.13784 | 8377 ft | 0 kts | 306° |
| 2026-05-07 02:55 | 4.69839 | -74.13792 | 8377 ft | 2 kts | 306° |
| 2026-05-07 02:56 | 4.69852 | -74.13809 | 8377 ft | 3 kts | 305° |
| 2026-05-07 02:56 | 4.69871 | -74.13837 | 8377 ft | 5 kts | 304° |
| 2026-05-07 02:56 | 4.69897 | -74.13872 | 8377 ft | 7 kts | 308° |
| 2026-05-07 02:56 | 4.69909 | -74.13887 | 8377 ft | 0 kts | 308° |
| 2026-05-07 02:57 | 4.69925 | -74.13891 | 8377 ft | 2 kts | 11° |
| 2026-05-07 02:57 | 4.69959 | -74.13876 | 8376 ft | 6 kts | 15° |
| 2026-05-07 02:57 | 4.70003 | -74.13889 | 8376 ft | 6 kts | 316° |
| 2026-05-07 02:57 | 4.70027 | -74.13917 | 8376 ft | 4 kts | 308° |
| 2026-05-07 02:58 | 4.70040 | -74.13934 | 8376 ft | 2 kts | 309° |
| 2026-05-07 02:58 | 4.70048 | -74.13944 | 8377 ft | 2 kts | 307° |
| 2026-05-07 02:58 | 4.70064 | -74.13965 | 8377 ft | 5 kts | 306° |
| 2026-05-07 02:58 | 4.70092 | -74.14005 | 8378 ft | 8 kts | 303° |
| 2026-05-07 02:59 | 4.70134 | -74.14062 | 8377 ft | 10 kts | 308° |
| 2026-05-07 02:59 | 4.70174 | -74.14114 | 8377 ft | 8 kts | 306° |
| 2026-05-07 02:59 | 4.70208 | -74.14160 | 8377 ft | 7 kts | 306° |
| 2026-05-07 02:59 | 4.70238 | -74.14202 | 8376 ft | 7 kts | 306° |
| 2026-05-07 03:00 | 4.70266 | -74.14239 | 8375 ft | 6 kts | 307° |
| 2026-05-07 03:00 | 4.70292 | -74.14272 | 8375 ft | 5 kts | 309° |
| 2026-05-07 03:00 | 4.70316 | -74.14302 | 8374 ft | 5 kts | 308° |
| 2026-05-07 03:00 | 4.70337 | -74.14329 | 8374 ft | 4 kts | 308° |
| 2026-05-07 03:01 | 4.70354 | -74.14351 | 8374 ft | 3 kts | 308° |
| 2026-05-07 03:01 | 4.70367 | -74.14367 | 8374 ft | 3 kts | 308° |
| 2026-05-07 03:01 | 4.70386 | -74.14391 | 8374 ft | 5 kts | 309° |
| 2026-05-07 03:01 | 4.70409 | -74.14421 | 8374 ft | 5 kts | 306° |
| 2026-05-07 03:02 | 4.70430 | -74.14452 | 8374 ft | 4 kts | 298° |
| 2026-05-07 03:02 | 4.70435 | -74.14482 | 8374 ft | 4 kts | 265° |
| 2026-05-07 03:02 | 4.70420 | -74.14511 | 8374 ft | 5 kts | 221° |
| 2026-05-07 03:02 | 4.70388 | -74.14535 | 8373 ft | 6 kts | 217° |
| 2026-05-07 03:03 | 4.70355 | -74.14561 | 8374 ft | 5 kts | 218° |
| 2026-05-07 03:03 | 4.70328 | -74.14581 | 8375 ft | 4 kts | 216° |
| 2026-05-07 03:03 | 4.70306 | -74.14597 | 8376 ft | 3 kts | 215° |
| 2026-05-07 03:03 | 4.70282 | -74.14613 | 8376 ft | 4 kts | 215° |
| 2026-05-07 03:04 | 4.70246 | -74.14639 | 8376 ft | 7 kts | 216° |
| 2026-05-07 03:04 | 4.70194 | -74.14676 | 8376 ft | 10 kts | 216° |
| 2026-05-07 03:04 | 4.70129 | -74.14723 | 8376 ft | 12 kts | 216° |
| 2026-05-07 03:04 | 4.70055 | -74.14779 | 8376 ft | 12 kts | 218° |
| 2026-05-07 03:05 | 4.69990 | -74.14829 | 8376 ft | 10 kts | 216° |
| 2026-05-07 03:05 | 4.69931 | -74.14873 | 8375 ft | 10 kts | 218° |
| 2026-05-07 03:05 | 4.69877 | -74.14915 | 8374 ft | 9 kts | 220° |
| 2026-05-07 03:05 | 4.69854 | -74.14964 | 8373 ft | 7 kts | 282° |
| 2026-05-07 03:06 | 4.69875 | -74.15005 | 8373 ft | 5 kts | 304° |
| 2026-05-07 03:06 | 4.69893 | -74.15030 | 8374 ft | 3 kts | 305° |
| 2026-05-07 03:06 | 4.69903 | -74.15044 | 8374 ft | 2 kts | 306° |
| 2026-05-07 03:06 | 4.69917 | -74.15064 | 8374 ft | 5 kts | 306° |
| 2026-05-07 03:07 | 4.69947 | -74.15105 | 8375 ft | 9 kts | 308° |
| 2026-05-07 03:07 | 4.69993 | -74.15163 | 8375 ft | 12 kts | 308° |
| 2026-05-07 03:07 | 4.70053 | -74.15243 | 8375 ft | 16 kts | 306° |
| 2026-05-07 03:07 | 4.70122 | -74.15337 | 8375 ft | 16 kts | 308° |
| 2026-05-07 03:08 | 4.70188 | -74.15421 | 8375 ft | 14 kts | 306° |
| 2026-05-07 03:08 | 4.70246 | -74.15500 | 8375 ft | 13 kts | 307° |
| 2026-05-07 03:08 | 4.70302 | -74.15574 | 8373 ft | 13 kts | 307° |
| 2026-05-07 03:08 | 4.70359 | -74.15649 | 8372 ft | 13 kts | 307° |
| 2026-05-07 03:09 | 4.70415 | -74.15723 | 8370 ft | 13 kts | 307° |
| 2026-05-07 03:09 | 4.70471 | -74.15797 | 8369 ft | 13 kts | 307° |
| 2026-05-07 03:09 | 4.70527 | -74.15870 | 8367 ft | 13 kts | 307° |
| 2026-05-07 03:09 | 4.70583 | -74.15944 | 8366 ft | 13 kts | 307° |
| 2026-05-07 03:10 | 4.70639 | -74.16017 | 8364 ft | 13 kts | 308° |
| 2026-05-07 03:10 | 4.70697 | -74.16090 | 8363 ft | 13 kts | 309° |
| 2026-05-07 03:10 | 4.70752 | -74.16164 | 8361 ft | 13 kts | 305° |
| 2026-05-07 03:10 | 4.70803 | -74.16235 | 8361 ft | 12 kts | 304° |
| 2026-05-07 03:11 | 4.70852 | -74.16301 | 8361 ft | 11 kts | 308° |
| 2026-05-07 03:11 | 4.70897 | -74.16359 | 8361 ft | 10 kts | 308° |
| 2026-05-07 03:11 | 4.70940 | -74.16412 | 8360 ft | 9 kts | 308° |
| 2026-05-07 03:11 | 4.70978 | -74.16463 | 8360 ft | 8 kts | 307° |
| 2026-05-07 03:12 | 4.71012 | -74.16510 | 8360 ft | 8 kts | 305° |
| 2026-05-07 03:12 | 4.71043 | -74.16554 | 8360 ft | 7 kts | 304° |
| 2026-05-07 03:12 | 4.71073 | -74.16595 | 8360 ft | 6 kts | 307° |
| 2026-05-07 03:12 | 4.71102 | -74.16632 | 8360 ft | 6 kts | 308° |
| 2026-05-07 03:13 | 4.71130 | -74.16668 | 8360 ft | 6 kts | 308° |
| 2026-05-07 03:13 | 4.71156 | -74.16700 | 8360 ft | 5 kts | 309° |
| 2026-05-07 03:13 | 4.71180 | -74.16729 | 8360 ft | 4 kts | 309° |
| 2026-05-07 03:13 | 4.71199 | -74.16753 | 8361 ft | 4 kts | 308° |
| 2026-05-07 03:14 | 4.71215 | -74.16775 | 8361 ft | 3 kts | 307° |
| 2026-05-07 03:14 | 4.71228 | -74.16792 | 8361 ft | 3 kts | 307° |
| 2026-05-07 03:14 | 4.71244 | -74.16837 | 8362 ft | 4 kts | 267° |
| 2026-05-07 03:15 | 4.71232 | -74.16866 | 8362 ft | 5 kts | 232° |
| 2026-05-07 03:15 | 4.71198 | -74.16888 | 8362 ft | 6 kts | 202° |
| 2026-05-07 03:15 | 4.71139 | -74.16897 | 8361 ft | 10 kts | 176° |
| 2026-05-07 03:15 | 4.71069 | -74.16889 | 8360 ft | 9 kts | 178° |
| 2026-05-07 03:16 | 4.71014 | -74.16865 | 8360 ft | 9 kts | 135° |
| 2026-05-07 03:16 | 4.70963 | -74.16800 | 8359 ft | 15 kts | 127° |
| 2026-05-07 03:16 | 4.70821 | -74.16610 | 8357 ft | 63 kts | 127° |
| 2026-05-07 03:16 | 4.70426 | -74.16088 | 8363 ft | 123 kts | 127° |
| 2026-05-07 03:17 | 4.69796 | -74.15256 | 8373 ft | 176 kts | 127° |
| 2026-05-07 03:17 | 4.68966 | -74.14174 | 8535 ft | 208 kts | 127° |
| 2026-05-07 03:17 | 4.68090 | -74.13016 | 9166 ft | 207 kts | 128° |
| 2026-05-07 03:17 | 4.66963 | -74.12060 | 9679 ft | 223 kts | 156° |
| 2026-05-07 03:18 | 4.65396 | -74.11803 | 10314 ft | 236 kts | 189° |
| 2026-05-07 03:18 | 4.63912 | -74.12463 | 11128 ft | 242 kts | 222° |
| 2026-05-07 03:18 | 4.62946 | -74.13901 | 11698 ft | 257 kts | 255° |
| 2026-05-07 03:18 | 4.62548 | -74.15642 | 12412 ft | 264 kts | 260° |
| 2026-05-07 03:19 | 4.62206 | -74.17471 | 13144 ft | 271 kts | 260° |
| 2026-05-07 03:19 | 4.61861 | -74.19321 | 13697 ft | 275 kts | 260° |
| 2026-05-07 03:19 | 4.61493 | -74.21208 | 14191 ft | 280 kts | 259° |
| 2026-05-07 03:19 | 4.61101 | -74.23196 | 14447 ft | 299 kts | 260° |
| 2026-05-07 03:20 | 4.60700 | -74.25300 | 14639 ft | 321 kts | 260° |
| 2026-05-07 03:20 | 4.60309 | -74.27631 | 14862 ft | 342 kts | 265° |
| 2026-05-07 03:20 | 4.60134 | -74.30094 | 15123 ft | 362 kts | 268° |
| 2026-05-07 03:20 | 4.60004 | -74.32665 | 15424 ft | 381 kts | 268° |
| 2026-05-07 03:21 | 4.59866 | -74.35377 | 15730 ft | 399 kts | 268° |
| 2026-05-07 03:21 | 4.59720 | -74.38246 | 16028 ft | 417 kts | 270° |
| 2026-05-07 03:21 | 4.59908 | -74.41195 | 16412 ft | 429 kts | 281° |
| 2026-05-07 03:21 | 4.60602 | -74.44124 | 17101 ft | 433 kts | 287° |
| 2026-05-07 03:22 | 4.61440 | -74.47087 | 17838 ft | 436 kts | 288° |
| 2026-05-07 03:22 | 4.62282 | -74.50034 | 18576 ft | 439 kts | 288° |
| 2026-05-07 03:22 | 4.63128 | -74.52974 | 19264 ft | 442 kts | 289° |
| 2026-05-07 03:22 | 4.64258 | -74.55820 | 19941 ft | 443 kts | 299° |
| 2026-05-07 03:23 | 4.65898 | -74.58472 | 20597 ft | 444 kts | 309° |
| 2026-05-07 03:23 | 4.67961 | -74.60782 | 21248 ft | 444 kts | 319° |
| 2026-05-07 03:23 | 4.70405 | -74.62723 | 21856 ft | 446 kts | 329° |
| 2026-05-07 03:23 | 4.73172 | -74.64227 | 22449 ft | 447 kts | 339° |
| 2026-05-07 03:24 | 4.76161 | -74.65239 | 23008 ft | 450 kts | 347° |
| 2026-05-07 03:24 | 4.79237 | -74.65966 | 23541 ft | 454 kts | 349° |
| 2026-05-07 03:24 | 4.82326 | -74.66819 | 24016 ft | 461 kts | 341° |
| 2026-05-07 03:24 | 4.85323 | -74.68176 | 24494 ft | 468 kts | 332° |
| 2026-05-07 03:25 | 4.88053 | -74.69977 | 25004 ft | 473 kts | 324° |
| 2026-05-07 03:25 | 4.90654 | -74.72004 | 25564 ft | 476 kts | 322° |
| 2026-05-07 03:25 | 4.93063 | -74.74288 | 26062 ft | 482 kts | 313° |
| 2026-05-07 03:25 | 4.95159 | -74.77016 | 26544 ft | 488 kts | 303° |
| 2026-05-07 03:26 | 4.96819 | -74.80032 | 27088 ft | 491 kts | 297° |
| 2026-05-07 03:26 | 4.98307 | -74.83108 | 27665 ft | 494 kts | 296° |
| 2026-05-07 03:26 | 4.99800 | -74.86214 | 28184 ft | 497 kts | 296° |
| 2026-05-07 03:26 | 5.01317 | -74.89358 | 28710 ft | 500 kts | 296° |
| 2026-05-07 03:27 | 5.02852 | -74.92534 | 29221 ft | 503 kts | 297° |
| 2026-05-07 03:27 | 5.04386 | -74.95702 | 29849 ft | 504 kts | 297° |
| 2026-05-07 03:27 | 5.05900 | -74.98825 | 30621 ft | 501 kts | 297° |
| 2026-05-07 03:27 | 5.07413 | -75.01946 | 31450 ft | 497 kts | 297° |
| 2026-05-07 03:28 | 5.08941 | -75.05094 | 32218 ft | 493 kts | 297° |
| 2026-05-07 03:28 | 5.10467 | -75.08237 | 32902 ft | 491 kts | 296° |
| 2026-05-07 03:28 | 5.11965 | -75.11321 | 33643 ft | 487 kts | 296° |
| 2026-05-07 03:28 | 5.13451 | -75.14382 | 34421 ft | 483 kts | 297° |
| 2026-05-07 03:29 | 5.14938 | -75.17323 | 35170 ft | 477 kts | 301° |
| 2026-05-07 03:29 | 5.16828 | -75.20081 | 35866 ft | 472 kts | 310° |
| 2026-05-07 03:29 | 5.18932 | -75.22539 | 36381 ft | 470 kts | 312° |
| 2026-05-07 03:30 | 5.23319 | -75.27506 | 36468 ft | 472 kts | 312° |
| 2026-05-07 03:30 | 5.27664 | -75.32420 | 36425 ft | 472 kts | 312° |
| 2026-05-07 03:31 | 5.32013 | -75.37339 | 36367 ft | 471 kts | 312° |
| 2026-05-07 03:31 | 5.36370 | -75.42268 | 36327 ft | 471 kts | 312° |
| 2026-05-07 03:32 | 5.40712 | -75.47182 | 36299 ft | 471 kts | 312° |
| 2026-05-07 03:32 | 5.45041 | -75.52082 | 36293 ft | 472 kts | 312° |
| 2026-05-07 03:33 | 5.49412 | -75.57031 | 36309 ft | 471 kts | 312° |
| 2026-05-07 03:33 | 5.53741 | -75.61933 | 36335 ft | 471 kts | 312° |
| 2026-05-07 03:34 | 5.58100 | -75.66871 | 36351 ft | 471 kts | 312° |
| 2026-05-07 03:34 | 5.62433 | -75.71780 | 36382 ft | 471 kts | 312° |
| 2026-05-07 03:35 | 5.66784 | -75.76711 | 36394 ft | 471 kts | 312° |
| 2026-05-07 03:35 | 5.71136 | -75.81645 | 36376 ft | 471 kts | 312° |
| 2026-05-07 03:36 | 5.75349 | -75.86655 | 36343 ft | 472 kts | 310° |
| 2026-05-07 03:36 | 5.79562 | -75.91740 | 36312 ft | 471 kts | 310° |
| 2026-05-07 03:37 | 5.83734 | -75.96764 | 36306 ft | 471 kts | 310° |
| 2026-05-07 03:37 | 5.87944 | -76.01831 | 36307 ft | 471 kts | 310° |
| 2026-05-07 03:38 | 5.92145 | -76.06885 | 36317 ft | 471 kts | 310° |
| 2026-05-07 03:38 | 5.96338 | -76.11929 | 36329 ft | 472 kts | 310° |
| 2026-05-07 03:39 | 6.00539 | -76.16983 | 36414 ft | 472 kts | 310° |
| 2026-05-07 03:39 | 6.04748 | -76.22047 | 36491 ft | 471 kts | 310° |
| 2026-05-07 03:40 | 6.08949 | -76.27103 | 36524 ft | 471 kts | 310° |
| 2026-05-07 03:40 | 6.13169 | -76.32185 | 36385 ft | 472 kts | 310° |
| 2026-05-07 03:41 | 6.17367 | -76.37240 | 36297 ft | 471 kts | 310° |
| 2026-05-07 03:41 | 6.21572 | -76.42304 | 36221 ft | 473 kts | 310° |
| 2026-05-07 03:42 | 6.25794 | -76.47392 | 36160 ft | 473 kts | 310° |
| 2026-05-07 03:42 | 6.29982 | -76.52438 | 36092 ft | 472 kts | 310° |
| 2026-05-07 03:43 | 6.34222 | -76.57550 | 36059 ft | 473 kts | 310° |
| 2026-05-07 03:43 | 6.38432 | -76.62627 | 36016 ft | 473 kts | 310° |
| 2026-05-07 03:44 | 6.42634 | -76.67696 | 35980 ft | 474 kts | 310° |
| 2026-05-07 03:44 | 6.46849 | -76.72781 | 35983 ft | 474 kts | 310° |
| 2026-05-07 03:45 | 6.51086 | -76.77895 | 35957 ft | 473 kts | 310° |
| 2026-05-07 03:45 | 6.55288 | -76.82966 | 35960 ft | 474 kts | 310° |
| 2026-05-07 03:46 | 6.59521 | -76.88077 | 35946 ft | 474 kts | 310° |
| 2026-05-07 03:46 | 6.63714 | -76.93143 | 35945 ft | 472 kts | 310° |
| 2026-05-07 03:47 | 6.67926 | -76.98232 | 35942 ft | 473 kts | 310° |
| 2026-05-07 03:47 | 6.72135 | -77.03319 | 35935 ft | 472 kts | 310° |
| 2026-05-07 03:48 | 6.76339 | -77.08401 | 35935 ft | 473 kts | 310° |
| 2026-05-07 03:48 | 6.80540 | -77.13483 | 35935 ft | 473 kts | 311° |
| 2026-05-07 03:49 | 6.84741 | -77.18565 | 35936 ft | 473 kts | 311° |
| 2026-05-07 03:49 | 6.88955 | -77.23663 | 35935 ft | 473 kts | 311° |
| 2026-05-07 03:50 | 6.93177 | -77.28774 | 35936 ft | 473 kts | 311° |
| 2026-05-07 03:50 | 6.97386 | -77.33870 | 35939 ft | 473 kts | 310° |
| 2026-05-07 03:51 | 7.01578 | -77.38948 | 35936 ft | 473 kts | 311° |
| 2026-05-07 03:51 | 7.05799 | -77.44062 | 35936 ft | 474 kts | 311° |
| 2026-05-07 03:52 | 7.10018 | -77.49175 | 35939 ft | 476 kts | 311° |
| 2026-05-07 03:52 | 7.14262 | -77.54320 | 35937 ft | 475 kts | 311° |
| 2026-05-07 03:53 | 7.18496 | -77.59455 | 35931 ft | 476 kts | 311° |
| 2026-05-07 03:53 | 7.22714 | -77.64572 | 35937 ft | 475 kts | 311° |
| 2026-05-07 03:54 | 7.26897 | -77.69649 | 35933 ft | 475 kts | 310° |
| 2026-05-07 03:54 | 7.31141 | -77.74801 | 35934 ft | 475 kts | 311° |
| 2026-05-07 03:55 | 7.35360 | -77.79923 | 35934 ft | 475 kts | 311° |
| 2026-05-07 03:55 | 7.39548 | -77.85013 | 35930 ft | 475 kts | 310° |
| 2026-05-07 03:56 | 7.43767 | -77.90171 | 35928 ft | 474 kts | 310° |
| 2026-05-07 03:56 | 7.47941 | -77.95277 | 35929 ft | 475 kts | 310° |
| 2026-05-07 03:57 | 7.52141 | -78.00417 | 35923 ft | 475 kts | 310° |
| 2026-05-07 03:57 | 7.56330 | -78.05543 | 35922 ft | 475 kts | 310° |
| 2026-05-07 03:58 | 7.60543 | -78.10702 | 35930 ft | 475 kts | 310° |
| 2026-05-07 03:58 | 7.64738 | -78.15839 | 35943 ft | 475 kts | 310° |
| 2026-05-07 03:59 | 7.68937 | -78.20983 | 35967 ft | 474 kts | 310° |
| 2026-05-07 03:59 | 7.73108 | -78.26095 | 35996 ft | 474 kts | 310° |
| 2026-05-07 04:00 | 7.77313 | -78.31250 | 35989 ft | 474 kts | 310° |
| 2026-05-07 04:00 | 7.81469 | -78.36346 | 35959 ft | 474 kts | 310° |
| 2026-05-07 04:01 | 7.85679 | -78.41511 | 35938 ft | 474 kts | 310° |
| 2026-05-07 04:01 | 7.89842 | -78.46619 | 35921 ft | 474 kts | 310° |
| 2026-05-07 04:02 | 7.94015 | -78.51743 | 35913 ft | 473 kts | 310° |
| 2026-05-07 04:02 | 7.98218 | -78.56905 | 35911 ft | 474 kts | 310° |
| 2026-05-07 04:03 | 8.02379 | -78.62015 | 35911 ft | 474 kts | 310° |
| 2026-05-07 04:03 | 8.06566 | -78.67162 | 35910 ft | 475 kts | 310° |
| 2026-05-07 04:04 | 8.10744 | -78.72297 | 35910 ft | 474 kts | 310° |
| 2026-05-07 04:04 | 8.14936 | -78.77453 | 35910 ft | 473 kts | 310° |
| 2026-05-07 04:05 | 8.19093 | -78.82568 | 35908 ft | 473 kts | 310° |
| 2026-05-07 04:05 | 8.23257 | -78.87692 | 35908 ft | 474 kts | 310° |
| 2026-05-07 04:06 | 8.27451 | -78.92856 | 35908 ft | 473 kts | 310° |
| 2026-05-07 04:06 | 8.31611 | -78.97980 | 35911 ft | 474 kts | 310° |
| 2026-05-07 04:07 | 8.35782 | -79.03119 | 35913 ft | 473 kts | 310° |
| 2026-05-07 04:07 | 8.39945 | -79.08250 | 35913 ft | 473 kts | 310° |
| 2026-05-07 04:08 | 8.44096 | -79.13368 | 35913 ft | 471 kts | 310° |
| 2026-05-07 04:08 | 8.48254 | -79.18497 | 35914 ft | 471 kts | 310° |
| 2026-05-07 04:09 | 8.52402 | -79.23615 | 35916 ft | 470 kts | 310° |
| 2026-05-07 04:09 | 8.56540 | -79.28723 | 35916 ft | 470 kts | 310° |
| 2026-05-07 04:10 | 8.60664 | -79.33816 | 35916 ft | 468 kts | 310° |
| 2026-05-07 04:10 | 8.64791 | -79.38914 | 35917 ft | 468 kts | 310° |
| 2026-05-07 04:11 | 8.68911 | -79.44006 | 35917 ft | 467 kts | 310° |
| 2026-05-07 04:11 | 8.73030 | -79.49097 | 35914 ft | 468 kts | 310° |
| 2026-05-07 04:12 | 8.77123 | -79.54160 | 35915 ft | 467 kts | 310° |
| 2026-05-07 04:12 | 8.80884 | -79.59534 | 35916 ft | 468 kts | 303° |
| 2026-05-07 04:13 | 8.84356 | -79.65053 | 35919 ft | 468 kts | 303° |
| 2026-05-07 04:13 | 8.87844 | -79.70598 | 35921 ft | 467 kts | 303° |
| 2026-05-07 04:14 | 8.91344 | -79.76163 | 35925 ft | 466 kts | 303° |
| 2026-05-07 04:14 | 8.94815 | -79.81682 | 35929 ft | 467 kts | 303° |
| 2026-05-07 04:15 | 8.98325 | -79.87265 | 35930 ft | 468 kts | 303° |
| 2026-05-07 04:15 | 9.01803 | -79.92801 | 35928 ft | 467 kts | 303° |
| 2026-05-07 04:16 | 9.04414 | -79.96956 | 35928 ft | 466 kts | 303° |
| 2026-05-07 04:16 | 9.07909 | -80.02520 | 35933 ft | 466 kts | 303° |
| 2026-05-07 04:17 | 9.11394 | -80.08072 | 35932 ft | 467 kts | 303° |
| 2026-05-07 04:17 | 9.14864 | -80.13603 | 35933 ft | 468 kts | 303° |
| 2026-05-07 04:18 | 9.18339 | -80.19142 | 35931 ft | 467 kts | 303° |
| 2026-05-07 04:18 | 9.21810 | -80.24678 | 35931 ft | 468 kts | 303° |
| 2026-05-07 04:19 | 9.25307 | -80.30260 | 35929 ft | 468 kts | 302° |
| 2026-05-07 04:19 | 9.28782 | -80.35806 | 35934 ft | 468 kts | 302° |
| 2026-05-07 04:20 | 9.32251 | -80.41347 | 35936 ft | 467 kts | 302° |
| 2026-05-07 04:20 | 9.35749 | -80.46937 | 35931 ft | 468 kts | 302° |
| 2026-05-07 04:21 | 9.40958 | -80.55265 | 35927 ft | 469 kts | 302° |
| 2026-05-07 04:21 | 9.44441 | -80.60835 | 35930 ft | 468 kts | 303° |
| 2026-05-07 04:22 | 9.47937 | -80.66430 | 35929 ft | 471 kts | 302° |
| 2026-05-07 04:22 | 9.51425 | -80.72016 | 35935 ft | 471 kts | 302° |
| 2026-05-07 04:23 | 9.54916 | -80.77608 | 35932 ft | 469 kts | 302° |
| 2026-05-07 04:23 | 9.58416 | -80.83217 | 35930 ft | 470 kts | 302° |
| 2026-05-07 04:24 | 9.61895 | -80.88774 | 35930 ft | 469 kts | 302° |
| 2026-05-07 04:24 | 9.65414 | -80.94381 | 35932 ft | 470 kts | 302° |
| 2026-05-07 04:25 | 9.68901 | -80.99943 | 35933 ft | 471 kts | 302° |
| 2026-05-07 04:25 | 9.72408 | -81.05539 | 35933 ft | 471 kts | 302° |
| 2026-05-07 04:26 | 9.75910 | -81.11130 | 35930 ft | 470 kts | 302° |
| 2026-05-07 04:26 | 9.79408 | -81.16718 | 35928 ft | 470 kts | 303° |
| 2026-05-07 04:27 | 9.82889 | -81.22280 | 35927 ft | 469 kts | 303° |
| 2026-05-07 04:27 | 9.86387 | -81.27873 | 35924 ft | 468 kts | 303° |
| 2026-05-07 04:28 | 9.89879 | -81.33457 | 35923 ft | 469 kts | 303° |
| 2026-05-07 04:28 | 9.93359 | -81.39027 | 35924 ft | 469 kts | 303° |
| 2026-05-07 04:29 | 9.96859 | -81.44631 | 35925 ft | 471 kts | 303° |
| 2026-05-07 04:29 | 10.00338 | -81.50205 | 35923 ft | 470 kts | 303° |
| 2026-05-07 04:30 | 10.03832 | -81.55805 | 35924 ft | 470 kts | 303° |
| 2026-05-07 04:30 | 10.07338 | -81.61427 | 35922 ft | 469 kts | 303° |
| 2026-05-07 04:31 | 10.10818 | -81.67009 | 35926 ft | 469 kts | 303° |
| 2026-05-07 04:31 | 10.14304 | -81.72605 | 35926 ft | 469 kts | 303° |
| 2026-05-07 04:32 | 10.17771 | -81.78172 | 35926 ft | 469 kts | 303° |
| 2026-05-07 04:32 | 10.21266 | -81.83787 | 35925 ft | 469 kts | 303° |
| 2026-05-07 04:33 | 10.24723 | -81.89345 | 35926 ft | 468 kts | 303° |
| 2026-05-07 04:33 | 10.28217 | -81.94963 | 35925 ft | 470 kts | 303° |
| 2026-05-07 04:34 | 10.31696 | -82.00562 | 35925 ft | 469 kts | 303° |
| 2026-05-07 04:34 | 10.35176 | -82.06164 | 35925 ft | 469 kts | 303° |
| 2026-05-07 04:35 | 10.38642 | -82.11746 | 35926 ft | 468 kts | 303° |
| 2026-05-07 04:35 | 10.42122 | -82.17353 | 35927 ft | 468 kts | 303° |
| 2026-05-07 04:36 | 10.45590 | -82.22945 | 35927 ft | 468 kts | 303° |
| 2026-05-07 04:36 | 10.49061 | -82.28543 | 35927 ft | 468 kts | 303° |
| 2026-05-07 04:37 | 10.52505 | -82.34102 | 35931 ft | 468 kts | 303° |
| 2026-05-07 04:37 | 10.55981 | -82.39714 | 35932 ft | 469 kts | 303° |
| 2026-05-07 04:38 | 10.59452 | -82.45321 | 35933 ft | 469 kts | 303° |
| 2026-05-07 04:38 | 10.62917 | -82.50921 | 35935 ft | 469 kts | 302° |
| 2026-05-07 04:39 | 10.66399 | -82.56553 | 35938 ft | 468 kts | 303° |
| 2026-05-07 04:39 | 10.69844 | -82.62128 | 35940 ft | 468 kts | 303° |
| 2026-05-07 04:40 | 10.73343 | -82.67709 | 35946 ft | 469 kts | 303° |
| 2026-05-07 04:40 | 10.76882 | -82.73284 | 35945 ft | 468 kts | 303° |
| 2026-05-07 04:41 | 10.80393 | -82.78822 | 35945 ft | 469 kts | 303° |
| 2026-05-07 04:41 | 10.83924 | -82.84397 | 35945 ft | 468 kts | 303° |
| 2026-05-07 04:42 | 10.87462 | -82.89987 | 35946 ft | 469 kts | 303° |
| 2026-05-07 04:42 | 10.90969 | -82.95533 | 35945 ft | 470 kts | 303° |
| 2026-05-07 04:43 | 10.94498 | -83.01116 | 35945 ft | 469 kts | 303° |
| 2026-05-07 04:43 | 10.98019 | -83.06691 | 35945 ft | 469 kts | 303° |
| 2026-05-07 04:44 | 11.01533 | -83.12257 | 35945 ft | 469 kts | 303° |
| 2026-05-07 04:44 | 11.05067 | -83.17859 | 35944 ft | 470 kts | 303° |
| 2026-05-07 04:45 | 11.08599 | -83.23459 | 35944 ft | 469 kts | 303° |
| 2026-05-07 04:45 | 11.12114 | -83.29036 | 35946 ft | 469 kts | 303° |
| 2026-05-07 04:46 | 11.15614 | -83.34592 | 35945 ft | 468 kts | 303° |
| 2026-05-07 04:46 | 11.19164 | -83.40157 | 35946 ft | 471 kts | 303° |
| 2026-05-07 04:47 | 11.22728 | -83.45725 | 35945 ft | 469 kts | 303° |
| 2026-05-07 04:47 | 11.26289 | -83.51295 | 35945 ft | 470 kts | 303° |
| 2026-05-07 04:48 | 11.26893 | -83.52239 | 35945 ft | 469 kts | 303° |